RYR9DK LDZA-EBCI
Flight info
| Callsign | RYR9DK |
|---|---|
| Flight time | 1h 30m |
| Altitude | 38000 |
| Route | PODET DCT BERTA DCT EVAXI DCT BIRGI DCT KPT L608 MISGI Z104 ODVUX/N0430F280 Z104 GESLO N852 LNO |
| Aircraft | A320/M-SDE3FGHIRWY/LB1 |
Departure
| Time | 2026-05-07 11:58 |
|---|---|
| Airport | Zagreb Franjo Tuđman International Airport (LDZA) |
Arrival
| Time | 2026-05-07 13:28 |
|---|---|
| Airport | Brussels South Charleroi Airport (EBCI) |
| Time | Latitude | Longitude | Altitude | Speed | Heading |
|---|---|---|---|---|---|
| 2026-05-07 11:33 | 45.74264 | 16.07963 | 363 ft | 0 kts | 136° |
| 2026-05-07 11:51 | 45.74278 | 16.07944 | 362 ft | 4 kts | 137° |
| 2026-05-07 11:51 | 45.74297 | 16.07918 | 360 ft | 4 kts | 131° |
| 2026-05-07 11:52 | 45.74313 | 16.07887 | 366 ft | 4 kts | 110° |
| 2026-05-07 11:52 | 45.74315 | 16.07854 | 364 ft | 4 kts | 54° |
| 2026-05-07 11:52 | 45.74312 | 16.07848 | 363 ft | 0 kts | 46° |
| 2026-05-07 11:55 | 45.74313 | 16.07850 | 359 ft | 2 kts | 46° |
| 2026-05-07 11:55 | 45.74337 | 16.07887 | 359 ft | 8 kts | 46° |
| 2026-05-07 11:55 | 45.74403 | 16.07882 | 360 ft | 14 kts | 316° |
| 2026-05-07 11:55 | 45.74485 | 16.07768 | 359 ft | 18 kts | 316° |
| 2026-05-07 11:56 | 45.74577 | 16.07648 | 359 ft | 11 kts | 317° |
| 2026-05-07 11:56 | 45.74600 | 16.07617 | 361 ft | 0 kts | 317° |
| 2026-05-07 11:56 | 45.74606 | 16.07609 | 363 ft | 2 kts | 317° |
| 2026-05-07 11:56 | 45.74618 | 16.07593 | 358 ft | 4 kts | 317° |
| 2026-05-07 11:57 | 45.74661 | 16.07537 | 357 ft | 11 kts | 318° |
| 2026-05-07 11:57 | 45.74678 | 16.07466 | 359 ft | 8 kts | 234° |
| 2026-05-07 11:57 | 45.74676 | 16.07462 | 362 ft | 0 kts | 231° |
| 2026-05-07 11:57 | 45.74549 | 16.07269 | 359 ft | 65 kts | 226° |
| 2026-05-07 11:58 | 45.74087 | 16.06565 | 367 ft | 127 kts | 227° |
| 2026-05-07 11:58 | 45.73374 | 16.05495 | 620 ft | 153 kts | 226° |
| 2026-05-07 11:58 | 45.72681 | 16.04369 | 1400 ft | 151 kts | 228° |
| 2026-05-07 11:58 | 45.71987 | 16.03204 | 1991 ft | 159 kts | 229° |
| 2026-05-07 11:59 | 45.71218 | 16.01940 | 2396 ft | 178 kts | 229° |
| 2026-05-07 11:59 | 45.70345 | 16.00531 | 2757 ft | 201 kts | 229° |
| 2026-05-07 11:59 | 45.69365 | 15.98951 | 3088 ft | 225 kts | 229° |
| 2026-05-07 11:59 | 45.68344 | 15.97109 | 3555 ft | 247 kts | 243° |
| 2026-05-07 12:00 | 45.67938 | 15.94705 | 4325 ft | 256 kts | 271° |
| 2026-05-07 12:00 | 45.68466 | 15.92273 | 5242 ft | 263 kts | 302° |
| 2026-05-07 12:00 | 45.69861 | 15.90551 | 6161 ft | 273 kts | 332° |
| 2026-05-07 12:00 | 45.71619 | 15.89481 | 7085 ft | 277 kts | 335° |
| 2026-05-07 12:01 | 45.73415 | 15.88442 | 8029 ft | 280 kts | 335° |
| 2026-05-07 12:01 | 45.75238 | 15.87394 | 8916 ft | 284 kts | 334° |
| 2026-05-07 12:01 | 45.77089 | 15.86324 | 9755 ft | 289 kts | 334° |
| 2026-05-07 12:01 | 45.78983 | 15.85221 | 10358 ft | 303 kts | 334° |
| 2026-05-07 12:02 | 45.81005 | 15.84029 | 10633 ft | 326 kts | 334° |
| 2026-05-07 12:02 | 45.83176 | 15.82745 | 10945 ft | 347 kts | 334° |
| 2026-05-07 12:02 | 45.85439 | 15.81410 | 11575 ft | 354 kts | 334° |
| 2026-05-07 12:02 | 45.87734 | 15.80065 | 12292 ft | 360 kts | 334° |
| 2026-05-07 12:03 | 45.90069 | 15.78702 | 13012 ft | 365 kts | 334° |
| 2026-05-07 12:03 | 45.92408 | 15.77332 | 13724 ft | 370 kts | 334° |
| 2026-05-07 12:03 | 45.94803 | 15.75921 | 14335 ft | 375 kts | 334° |
| 2026-05-07 12:03 | 45.97232 | 15.74488 | 14937 ft | 379 kts | 334° |
| 2026-05-07 12:04 | 45.99689 | 15.73036 | 15562 ft | 384 kts | 334° |
| 2026-05-07 12:04 | 46.02180 | 15.71563 | 16175 ft | 389 kts | 334° |
| 2026-05-07 12:04 | 46.04699 | 15.70072 | 16764 ft | 394 kts | 334° |
| 2026-05-07 12:04 | 46.07247 | 15.68557 | 17312 ft | 399 kts | 334° |
| 2026-05-07 12:05 | 46.09827 | 15.67021 | 17955 ft | 403 kts | 333° |
| 2026-05-07 12:05 | 46.12420 | 15.65388 | 18448 ft | 407 kts | 328° |
| 2026-05-07 12:05 | 46.14789 | 15.63195 | 18973 ft | 405 kts | 316° |
| 2026-05-07 12:05 | 46.16834 | 15.60425 | 19561 ft | 401 kts | 306° |
| 2026-05-07 12:06 | 46.18479 | 15.57223 | 20100 ft | 396 kts | 295° |
| 2026-05-07 12:06 | 46.19684 | 15.53693 | 20712 ft | 391 kts | 286° |
| 2026-05-07 12:06 | 46.20705 | 15.50046 | 21326 ft | 392 kts | 287° |
| 2026-05-07 12:06 | 46.21733 | 15.46392 | 21916 ft | 393 kts | 287° |
| 2026-05-07 12:07 | 46.22766 | 15.42727 | 22487 ft | 395 kts | 287° |
| 2026-05-07 12:07 | 46.23805 | 15.39041 | 23050 ft | 397 kts | 287° |
| 2026-05-07 12:07 | 46.24847 | 15.35343 | 23593 ft | 398 kts | 286° |
| 2026-05-07 12:07 | 46.25890 | 15.31627 | 24037 ft | 400 kts | 285° |
| 2026-05-07 12:08 | 46.26935 | 15.27896 | 24455 ft | 402 kts | 285° |
| 2026-05-07 12:08 | 46.27983 | 15.24143 | 24847 ft | 404 kts | 285° |
| 2026-05-07 12:08 | 46.29039 | 15.20360 | 25231 ft | 406 kts | 285° |
| 2026-05-07 12:08 | 46.30097 | 15.16565 | 25619 ft | 408 kts | 285° |
| 2026-05-07 12:09 | 46.31157 | 15.12753 | 26003 ft | 410 kts | 285° |
| 2026-05-07 12:09 | 46.32223 | 15.08905 | 26388 ft | 412 kts | 285° |
| 2026-05-07 12:09 | 46.33293 | 15.05048 | 26771 ft | 414 kts | 285° |
| 2026-05-07 12:09 | 46.34368 | 15.01168 | 27137 ft | 416 kts | 284° |
| 2026-05-07 12:10 | 46.35448 | 14.97263 | 27523 ft | 418 kts | 284° |
| 2026-05-07 12:10 | 46.36531 | 14.93340 | 27860 ft | 420 kts | 284° |
| 2026-05-07 12:10 | 46.37618 | 14.89394 | 28213 ft | 423 kts | 284° |
| 2026-05-07 12:10 | 46.38708 | 14.85437 | 28531 ft | 424 kts | 284° |
| 2026-05-07 12:11 | 46.39804 | 14.81447 | 28819 ft | 427 kts | 284° |
| 2026-05-07 12:11 | 46.40900 | 14.77441 | 29136 ft | 429 kts | 284° |
| 2026-05-07 12:11 | 46.41998 | 14.73423 | 29416 ft | 430 kts | 284° |
| 2026-05-07 12:11 | 46.43100 | 14.69385 | 29675 ft | 432 kts | 284° |
| 2026-05-07 12:12 | 46.44209 | 14.65319 | 29963 ft | 434 kts | 284° |
| 2026-05-07 12:12 | 46.45322 | 14.61246 | 30172 ft | 436 kts | 284° |
| 2026-05-07 12:12 | 46.46490 | 14.57184 | 30435 ft | 437 kts | 286° |
| 2026-05-07 12:12 | 46.47708 | 14.53143 | 30700 ft | 438 kts | 286° |
| 2026-05-07 12:13 | 46.48952 | 14.49120 | 31016 ft | 437 kts | 287° |
| 2026-05-07 12:13 | 46.50199 | 14.45102 | 31338 ft | 435 kts | 286° |
| 2026-05-07 12:13 | 46.51428 | 14.41106 | 31663 ft | 434 kts | 286° |
| 2026-05-07 12:13 | 46.52644 | 14.37097 | 31962 ft | 433 kts | 286° |
| 2026-05-07 12:14 | 46.53845 | 14.33094 | 32267 ft | 431 kts | 286° |
| 2026-05-07 12:14 | 46.55034 | 14.29098 | 32575 ft | 431 kts | 286° |
| 2026-05-07 12:14 | 46.56217 | 14.25106 | 32935 ft | 430 kts | 286° |
| 2026-05-07 12:14 | 46.57396 | 14.21117 | 33255 ft | 429 kts | 286° |
| 2026-05-07 12:15 | 46.58578 | 14.17127 | 33571 ft | 429 kts | 286° |
| 2026-05-07 12:15 | 46.59740 | 14.13202 | 33881 ft | 428 kts | 286° |
| 2026-05-07 12:15 | 46.60918 | 14.09232 | 34155 ft | 427 kts | 286° |
| 2026-05-07 12:15 | 46.62091 | 14.05267 | 34400 ft | 427 kts | 287° |
| 2026-05-07 12:16 | 46.63268 | 14.01284 | 34636 ft | 427 kts | 287° |
| 2026-05-07 12:16 | 46.64441 | 13.97307 | 34869 ft | 428 kts | 287° |
| 2026-05-07 12:16 | 46.65609 | 13.93338 | 35074 ft | 428 kts | 287° |
| 2026-05-07 12:16 | 46.66782 | 13.89348 | 35317 ft | 428 kts | 287° |
| 2026-05-07 12:17 | 46.67949 | 13.85365 | 35547 ft | 428 kts | 287° |
| 2026-05-07 12:17 | 46.69116 | 13.81376 | 35757 ft | 428 kts | 287° |
| 2026-05-07 12:17 | 46.70285 | 13.77380 | 35913 ft | 428 kts | 287° |
| 2026-05-07 12:17 | 46.71450 | 13.73395 | 36068 ft | 428 kts | 287° |
| 2026-05-07 12:18 | 46.72617 | 13.69400 | 36282 ft | 429 kts | 287° |
| 2026-05-07 12:18 | 46.73784 | 13.65401 | 36480 ft | 428 kts | 287° |
| 2026-05-07 12:18 | 46.74949 | 13.61392 | 36689 ft | 429 kts | 288° |
| 2026-05-07 12:18 | 46.76106 | 13.57395 | 36883 ft | 429 kts | 287° |
| 2026-05-07 12:19 | 46.77267 | 13.53382 | 37087 ft | 429 kts | 288° |
| 2026-05-07 12:19 | 46.78593 | 13.49466 | 37234 ft | 433 kts | 293° |
| 2026-05-07 12:19 | 46.80022 | 13.45592 | 37407 ft | 434 kts | 293° |
| 2026-05-07 12:19 | 46.81452 | 13.41712 | 37571 ft | 434 kts | 293° |
| 2026-05-07 12:20 | 46.82868 | 13.37865 | 37752 ft | 435 kts | 293° |
| 2026-05-07 12:20 | 46.84293 | 13.33978 | 37911 ft | 435 kts | 293° |
| 2026-05-07 12:20 | 46.85717 | 13.30083 | 37979 ft | 436 kts | 293° |
| 2026-05-07 12:21 | 46.88570 | 13.22255 | 37977 ft | 436 kts | 293° |
| 2026-05-07 12:21 | 46.91416 | 13.14430 | 37982 ft | 435 kts | 293° |
| 2026-05-07 12:22 | 46.94260 | 13.06610 | 37977 ft | 435 kts | 293° |
| 2026-05-07 12:22 | 46.97090 | 12.98785 | 37981 ft | 435 kts | 293° |
| 2026-05-07 12:23 | 46.99918 | 12.90938 | 37987 ft | 436 kts | 293° |
| 2026-05-07 12:23 | 47.02749 | 12.83092 | 37979 ft | 434 kts | 293° |
| 2026-05-07 12:24 | 47.05575 | 12.75217 | 38002 ft | 437 kts | 293° |
| 2026-05-07 12:24 | 47.08396 | 12.67315 | 37990 ft | 438 kts | 293° |
| 2026-05-07 12:25 | 47.11210 | 12.59412 | 38024 ft | 439 kts | 293° |
| 2026-05-07 12:25 | 47.14038 | 12.51464 | 38019 ft | 439 kts | 293° |
| 2026-05-07 12:26 | 47.16864 | 12.43516 | 38033 ft | 439 kts | 293° |
| 2026-05-07 12:26 | 47.19679 | 12.35548 | 38009 ft | 440 kts | 293° |
| 2026-05-07 12:27 | 47.22491 | 12.27568 | 38024 ft | 440 kts | 293° |
| 2026-05-07 12:27 | 47.25303 | 12.19583 | 38026 ft | 439 kts | 293° |
| 2026-05-07 12:28 | 47.28100 | 12.11594 | 38025 ft | 440 kts | 293° |
| 2026-05-07 12:28 | 47.30890 | 12.03580 | 38023 ft | 439 kts | 293° |
| 2026-05-07 12:29 | 47.33671 | 11.95571 | 38023 ft | 439 kts | 293° |
| 2026-05-07 12:29 | 47.36085 | 11.87409 | 38027 ft | 436 kts | 287° |
| 2026-05-07 12:30 | 47.38257 | 11.79066 | 38019 ft | 436 kts | 287° |
| 2026-05-07 12:30 | 47.40427 | 11.70703 | 38036 ft | 436 kts | 288° |
| 2026-05-07 12:31 | 47.42600 | 11.62322 | 38027 ft | 436 kts | 288° |
| 2026-05-07 12:31 | 47.44761 | 11.53934 | 38010 ft | 437 kts | 287° |
| 2026-05-07 12:32 | 47.46922 | 11.45522 | 38004 ft | 438 kts | 288° |
| 2026-05-07 12:32 | 47.49079 | 11.37113 | 38004 ft | 438 kts | 287° |
| 2026-05-07 12:33 | 47.51933 | 11.25883 | 38021 ft | 438 kts | 288° |
| 2026-05-07 12:33 | 47.54074 | 11.17444 | 38022 ft | 438 kts | 288° |
| 2026-05-07 12:34 | 47.56211 | 11.08990 | 38023 ft | 438 kts | 288° |
| 2026-05-07 12:34 | 47.58340 | 11.00531 | 38024 ft | 438 kts | 287° |
| 2026-05-07 12:35 | 47.60463 | 10.92073 | 38036 ft | 438 kts | 288° |
| 2026-05-07 12:35 | 47.62581 | 10.83600 | 38033 ft | 438 kts | 287° |
| 2026-05-07 12:36 | 47.64693 | 10.75128 | 38046 ft | 438 kts | 287° |
| 2026-05-07 12:36 | 47.66798 | 10.66655 | 38044 ft | 438 kts | 287° |
| 2026-05-07 12:37 | 47.68893 | 10.58176 | 38049 ft | 438 kts | 287° |
| 2026-05-07 12:37 | 47.70986 | 10.49682 | 38059 ft | 438 kts | 287° |
| 2026-05-07 12:38 | 47.73062 | 10.41234 | 38057 ft | 438 kts | 289° |
| 2026-05-07 12:38 | 47.76224 | 10.33455 | 38059 ft | 445 kts | 309° |
| 2026-05-07 12:39 | 47.80887 | 10.27320 | 38057 ft | 450 kts | 317° |
| 2026-05-07 12:39 | 47.85732 | 10.21421 | 38051 ft | 450 kts | 317° |
| 2026-05-07 12:40 | 47.90571 | 10.15504 | 38061 ft | 451 kts | 317° |
| 2026-05-07 12:40 | 47.95418 | 10.09559 | 38057 ft | 451 kts | 317° |
| 2026-05-07 12:41 | 48.00265 | 10.03598 | 38065 ft | 451 kts | 317° |
| 2026-05-07 12:41 | 48.05105 | 9.97633 | 38058 ft | 451 kts | 317° |
| 2026-05-07 12:42 | 48.09952 | 9.91650 | 38063 ft | 452 kts | 317° |
| 2026-05-07 12:42 | 48.14764 | 9.85691 | 38053 ft | 452 kts | 317° |
| 2026-05-07 12:43 | 48.19601 | 9.79675 | 38054 ft | 452 kts | 317° |
| 2026-05-07 12:43 | 48.24431 | 9.73656 | 38063 ft | 452 kts | 317° |
| 2026-05-07 12:44 | 48.29266 | 9.67631 | 38049 ft | 452 kts | 317° |
| 2026-05-07 12:44 | 48.34104 | 9.61588 | 38048 ft | 452 kts | 317° |
| 2026-05-07 12:45 | 48.38909 | 9.55490 | 38047 ft | 452 kts | 316° |
| 2026-05-07 12:45 | 48.43687 | 9.49347 | 38052 ft | 452 kts | 316° |
| 2026-05-07 12:46 | 48.48468 | 9.43182 | 38047 ft | 452 kts | 316° |
| 2026-05-07 12:46 | 48.53241 | 9.37032 | 38051 ft | 451 kts | 317° |
| 2026-05-07 12:47 | 48.57981 | 9.30921 | 38053 ft | 451 kts | 316° |
| 2026-05-07 12:47 | 48.63052 | 9.25229 | 38051 ft | 455 kts | 329° |
| 2026-05-07 12:48 | 48.68813 | 9.21314 | 38050 ft | 456 kts | 334° |
| 2026-05-07 12:48 | 48.74637 | 9.17474 | 38062 ft | 457 kts | 334° |
| 2026-05-07 12:49 | 48.80454 | 9.13609 | 38056 ft | 457 kts | 334° |
| 2026-05-07 12:49 | 48.86275 | 9.09736 | 38054 ft | 456 kts | 334° |
| 2026-05-07 12:50 | 48.92081 | 9.05832 | 38052 ft | 456 kts | 333° |
| 2026-05-07 12:50 | 48.97852 | 9.01823 | 38060 ft | 456 kts | 333° |
| 2026-05-07 12:51 | 49.03616 | 8.97772 | 38056 ft | 456 kts | 333° |
| 2026-05-07 12:51 | 49.09385 | 8.93739 | 38053 ft | 456 kts | 333° |
| 2026-05-07 12:52 | 49.15155 | 8.89701 | 38056 ft | 456 kts | 333° |
| 2026-05-07 12:52 | 49.20941 | 8.85873 | 38062 ft | 458 kts | 340° |
| 2026-05-07 12:53 | 49.27013 | 8.82929 | 38068 ft | 458 kts | 340° |
| 2026-05-07 12:53 | 49.33124 | 8.79956 | 38070 ft | 457 kts | 340° |
| 2026-05-07 12:54 | 49.39154 | 8.77008 | 38070 ft | 457 kts | 340° |
| 2026-05-07 12:54 | 49.45218 | 8.74038 | 38083 ft | 458 kts | 340° |
| 2026-05-07 12:55 | 49.51279 | 8.71062 | 38074 ft | 458 kts | 340° |
| 2026-05-07 12:55 | 49.57348 | 8.68062 | 38071 ft | 458 kts | 340° |
| 2026-05-07 12:56 | 49.63408 | 8.65066 | 38068 ft | 458 kts | 340° |
| 2026-05-07 12:56 | 49.69435 | 8.61931 | 38063 ft | 456 kts | 334° |
| 2026-05-07 12:57 | 49.74727 | 8.56698 | 38057 ft | 450 kts | 315° |
| 2026-05-07 12:57 | 49.79276 | 8.50047 | 38050 ft | 450 kts | 315° |
| 2026-05-07 12:58 | 49.83617 | 8.43111 | 38046 ft | 447 kts | 304° |
| 2026-05-07 12:58 | 49.86445 | 8.34618 | 38045 ft | 443 kts | 287° |
| 2026-05-07 12:59 | 49.88351 | 8.25523 | 38044 ft | 443 kts | 287° |
| 2026-05-07 12:59 | 49.90258 | 8.16428 | 38060 ft | 444 kts | 287° |
| 2026-05-07 13:00 | 49.92165 | 8.07315 | 38064 ft | 444 kts | 287° |
| 2026-05-07 13:00 | 49.94055 | 7.98181 | 38064 ft | 445 kts | 287° |
| 2026-05-07 13:01 | 49.95894 | 7.89013 | 38061 ft | 444 kts | 285° |
| 2026-05-07 13:01 | 49.97602 | 7.79841 | 38061 ft | 445 kts | 284° |
| 2026-05-07 13:02 | 49.99306 | 7.70612 | 38066 ft | 445 kts | 285° |
| 2026-05-07 13:02 | 50.01170 | 7.61448 | 38065 ft | 445 kts | 287° |
| 2026-05-07 13:03 | 50.03100 | 7.52306 | 38063 ft | 445 kts | 287° |
| 2026-05-07 13:03 | 50.04998 | 7.43157 | 38074 ft | 445 kts | 286° |
| 2026-05-07 13:04 | 50.06856 | 7.33973 | 38075 ft | 445 kts | 286° |
| 2026-05-07 13:04 | 50.08010 | 7.24573 | 38076 ft | 443 kts | 272° |
| 2026-05-07 13:05 | 50.08404 | 7.15003 | 38073 ft | 443 kts | 273° |
| 2026-05-07 13:05 | 50.08813 | 7.05432 | 38072 ft | 443 kts | 273° |
| 2026-05-07 13:06 | 50.09217 | 6.95837 | 38071 ft | 443 kts | 273° |
| 2026-05-07 13:06 | 50.09505 | 6.86253 | 38076 ft | 443 kts | 268° |
| 2026-05-07 13:07 | 50.09302 | 6.76654 | 38061 ft | 443 kts | 268° |
| 2026-05-07 13:07 | 50.09101 | 6.67136 | 38060 ft | 443 kts | 268° |
| 2026-05-07 13:08 | 50.08898 | 6.57544 | 38059 ft | 443 kts | 268° |
| 2026-05-07 13:08 | 50.08695 | 6.47961 | 38043 ft | 443 kts | 269° |
| 2026-05-07 13:09 | 50.08974 | 6.43192 | 38039 ft | 443 kts | 283° |
| 2026-05-07 13:09 | 50.10054 | 6.38707 | 38051 ft | 444 kts | 298° |
| 2026-05-07 13:09 | 50.11899 | 6.34844 | 38046 ft | 446 kts | 315° |
| 2026-05-07 13:09 | 50.14226 | 6.31623 | 38041 ft | 447 kts | 317° |
| 2026-05-07 13:10 | 50.18904 | 6.25339 | 38033 ft | 448 kts | 317° |
| 2026-05-07 13:10 | 50.23616 | 6.18940 | 38041 ft | 448 kts | 317° |
| 2026-05-07 13:11 | 50.28325 | 6.12545 | 38046 ft | 449 kts | 317° |
| 2026-05-07 13:11 | 50.33042 | 6.06134 | 38051 ft | 450 kts | 317° |
| 2026-05-07 13:12 | 50.37754 | 5.99695 | 38063 ft | 450 kts | 317° |
| 2026-05-07 13:12 | 50.42469 | 5.93238 | 38060 ft | 450 kts | 317° |
| 2026-05-07 13:13 | 50.44824 | 5.90011 | 37586 ft | 448 kts | 317° |
| 2026-05-07 13:13 | 50.47155 | 5.86813 | 36564 ft | 443 kts | 317° |
| 2026-05-07 13:13 | 50.49470 | 5.83630 | 35381 ft | 442 kts | 317° |
| 2026-05-07 13:13 | 50.51776 | 5.80457 | 34229 ft | 439 kts | 317° |
| 2026-05-07 13:14 | 50.54067 | 5.77298 | 32847 ft | 437 kts | 317° |
| 2026-05-07 13:14 | 50.56354 | 5.74132 | 31353 ft | 438 kts | 317° |
| 2026-05-07 13:14 | 50.58593 | 5.70856 | 29750 ft | 441 kts | 311° |
| 2026-05-07 13:14 | 50.60534 | 5.67181 | 28448 ft | 433 kts | 307° |
| 2026-05-07 13:15 | 50.62398 | 5.63506 | 27237 ft | 426 kts | 308° |
| 2026-05-07 13:15 | 50.64237 | 5.59899 | 26118 ft | 419 kts | 308° |
| 2026-05-07 13:15 | 50.66052 | 5.56348 | 25021 ft | 412 kts | 308° |
| 2026-05-07 13:15 | 50.67833 | 5.52856 | 23961 ft | 406 kts | 307° |
| 2026-05-07 13:16 | 50.69588 | 5.49401 | 22807 ft | 401 kts | 307° |
| 2026-05-07 13:16 | 50.71292 | 5.46035 | 21653 ft | 396 kts | 307° |
| 2026-05-07 13:16 | 50.73003 | 5.42650 | 20541 ft | 392 kts | 307° |
| 2026-05-07 13:16 | 50.74687 | 5.39315 | 19535 ft | 386 kts | 307° |
| 2026-05-07 13:17 | 50.76348 | 5.36022 | 18569 ft | 381 kts | 307° |
| 2026-05-07 13:17 | 50.77981 | 5.32766 | 17518 ft | 375 kts | 307° |
| 2026-05-07 13:17 | 50.79549 | 5.29517 | 16482 ft | 368 kts | 301° |
| 2026-05-07 13:17 | 50.80517 | 5.25842 | 15522 ft | 360 kts | 281° |
| 2026-05-07 13:18 | 50.80583 | 5.21948 | 14573 ft | 353 kts | 260° |
| 2026-05-07 13:18 | 50.79756 | 5.18344 | 13609 ft | 349 kts | 238° |
| 2026-05-07 13:18 | 50.78197 | 5.15444 | 12541 ft | 346 kts | 224° |
| 2026-05-07 13:18 | 50.76446 | 5.12861 | 11492 ft | 342 kts | 223° |
| 2026-05-07 13:19 | 50.74708 | 5.10322 | 10572 ft | 339 kts | 223° |
| 2026-05-07 13:19 | 50.72984 | 5.07794 | 9980 ft | 335 kts | 223° |
| 2026-05-07 13:19 | 50.71290 | 5.05306 | 8880 ft | 330 kts | 223° |
| 2026-05-07 13:19 | 50.70183 | 5.03683 | 8187 ft | 327 kts | 223° |
| 2026-05-07 13:20 | 50.68523 | 5.01265 | 7302 ft | 319 kts | 223° |
| 2026-05-07 13:20 | 50.66965 | 4.99008 | 7138 ft | 290 kts | 223° |
| 2026-05-07 13:20 | 50.65540 | 4.96953 | 7009 ft | 265 kts | 223° |
| 2026-05-07 13:20 | 50.64191 | 4.95173 | 6834 ft | 244 kts | 216° |
| 2026-05-07 13:21 | 50.62801 | 4.93723 | 6387 ft | 237 kts | 213° |
| 2026-05-07 13:21 | 50.61411 | 4.92334 | 5812 ft | 236 kts | 213° |
| 2026-05-07 13:21 | 50.60028 | 4.90964 | 5343 ft | 230 kts | 213° |
| 2026-05-07 13:21 | 50.58820 | 4.89441 | 5219 ft | 218 kts | 232° |
| 2026-05-07 13:22 | 50.58093 | 4.87418 | 5087 ft | 208 kts | 246° |
| 2026-05-07 13:22 | 50.57512 | 4.85368 | 4899 ft | 204 kts | 246° |
| 2026-05-07 13:22 | 50.56935 | 4.83337 | 4627 ft | 203 kts | 246° |
| 2026-05-07 13:22 | 50.56354 | 4.81300 | 4353 ft | 203 kts | 246° |
| 2026-05-07 13:23 | 50.55776 | 4.79277 | 4117 ft | 202 kts | 247° |
| 2026-05-07 13:23 | 50.55199 | 4.77260 | 4044 ft | 202 kts | 246° |
| 2026-05-07 13:23 | 50.54626 | 4.75259 | 4054 ft | 204 kts | 246° |
| 2026-05-07 13:23 | 50.54043 | 4.73226 | 4086 ft | 204 kts | 246° |
| 2026-05-07 13:24 | 50.53467 | 4.71219 | 3929 ft | 197 kts | 246° |
| 2026-05-07 13:24 | 50.52913 | 4.69288 | 3696 ft | 191 kts | 246° |
| 2026-05-07 13:24 | 50.52372 | 4.67404 | 3459 ft | 188 kts | 246° |
| 2026-05-07 13:24 | 50.51837 | 4.65543 | 3208 ft | 185 kts | 245° |
| 2026-05-07 13:25 | 50.51309 | 4.63710 | 2964 ft | 182 kts | 245° |
| 2026-05-07 13:25 | 50.50790 | 4.61907 | 2716 ft | 180 kts | 245° |
| 2026-05-07 13:25 | 50.50277 | 4.60126 | 2475 ft | 177 kts | 245° |
| 2026-05-07 13:25 | 50.49776 | 4.58391 | 2225 ft | 172 kts | 245° |
| 2026-05-07 13:26 | 50.49304 | 4.56755 | 2014 ft | 158 kts | 245° |
| 2026-05-07 13:26 | 50.48866 | 4.55238 | 1793 ft | 148 kts | 246° |
| 2026-05-07 13:26 | 50.48447 | 4.53788 | 1591 ft | 146 kts | 245° |
| 2026-05-07 13:26 | 50.48030 | 4.52345 | 1391 ft | 145 kts | 245° |
| 2026-05-07 13:27 | 50.47616 | 4.50913 | 1185 ft | 143 kts | 245° |
| 2026-05-07 13:27 | 50.47210 | 4.49512 | 994 ft | 141 kts | 245° |
| 2026-05-07 13:27 | 50.46801 | 4.48100 | 794 ft | 142 kts | 246° |
| 2026-05-07 13:27 | 50.46396 | 4.46698 | 615 ft | 141 kts | 247° |
| 2026-05-07 13:28 | 50.46046 | 4.45488 | 594 ft | 98 kts | 245° |
| 2026-05-07 13:28 | 50.45834 | 4.44762 | 599 ft | 50 kts | 245° |
| 2026-05-07 13:28 | 50.45698 | 4.44296 | 596 ft | 40 kts | 247° |
| 2026-05-07 13:28 | 50.45628 | 4.44054 | 594 ft | 15 kts | 256° |
| 2026-05-07 13:29 | 50.45690 | 4.44000 | 594 ft | 13 kts | 32° |
| 2026-05-07 13:29 | 50.45750 | 4.44109 | 595 ft | 14 kts | 52° |
| 2026-05-07 13:29 | 50.45807 | 4.44226 | 598 ft | 13 kts | 53° |
| 2026-05-07 13:29 | 50.45863 | 4.44340 | 599 ft | 14 kts | 51° |
| 2026-05-07 13:30 | 50.45925 | 4.44471 | 600 ft | 16 kts | 57° |
| 2026-05-07 13:30 | 50.45979 | 4.44628 | 598 ft | 18 kts | 68° |
| 2026-05-07 13:30 | 50.46031 | 4.44828 | 597 ft | 20 kts | 69° |
| 2026-05-07 13:30 | 50.46090 | 4.45036 | 596 ft | 22 kts | 64° |
| 2026-05-07 13:31 | 50.46155 | 4.45247 | 599 ft | 21 kts | 65° |
| 2026-05-07 13:31 | 50.46218 | 4.45467 | 599 ft | 23 kts | 65° |
| 2026-05-07 13:31 | 50.46287 | 4.45702 | 597 ft | 25 kts | 65° |
| 2026-05-07 13:31 | 50.46361 | 4.45959 | 597 ft | 27 kts | 65° |
| 2026-05-07 13:32 | 50.46444 | 4.46245 | 591 ft | 30 kts | 65° |
| 2026-05-07 13:32 | 50.46530 | 4.46542 | 590 ft | 28 kts | 65° |
| 2026-05-07 13:32 | 50.46611 | 4.46810 | 592 ft | 25 kts | 65° |
| 2026-05-07 13:32 | 50.46684 | 4.47066 | 592 ft | 26 kts | 65° |
| 2026-05-07 13:33 | 50.46744 | 4.47275 | 591 ft | 14 kts | 66° |
| 2026-05-07 13:33 | 50.46805 | 4.47350 | 588 ft | 14 kts | 347° |
| 2026-05-07 13:33 | 50.46899 | 4.47308 | 584 ft | 10 kts | 334° |
| 2026-05-07 13:33 | 50.46910 | 4.47300 | 585 ft | 0 kts | 335° |
| 2026-05-07 13:34 | 50.46911 | 4.47299 | 585 ft | 0 kts | 335° |
| 2026-05-07 13:34 | 50.46927 | 4.47288 | 585 ft | 1 kts | 335° |
| 2026-05-07 13:34 | 50.46927 | 4.47287 | 585 ft | 0 kts | 335° |